Surat Thani, Thailand

9:04 PM ICT on November 24, 2014 (GMT +0700)
Surat Thani | Change Station
CLOSE
Current Station
Airport
Location: Surat Thani,
Elevation: 23 ft
Nearby Weather Stations

Elev 23 ft 9.13 °N, 99.15 °E | Updated 1 hour ago

Mostly Cloudy
Mostly Cloudy
81 °F
Feels Like 89 °F
N
6
Wind Variable Wind from NNE

Today
High -- | Low -- °F
--% Chance of Precip.
Yesterday
High -- | Low -- °F
Precip. -- in
6:20 AM 5:59 PM
Waxing Crescent, 5% visible
Pressure 29.83 in
Visibility 5.6 miles
Clouds Few 2000 ft
Mostly Cloudy 30000 ft
Heat Index 89 °F
Dew Point 81 °F
Humidity 100%
Rainfall 0.00 in
Snow Depth Not available.
UV 0 out of 12
Pollen Not available.
Air Quality Not available.
Flu Activity Not available.
METAR VTSB 241300Z 03005KT 9000 FEW020 BKN300 27/27 Q1010 A2982

More Conditions Fewer Conditions

Pressure 29.83 in
Visibility 5.6 miles
Clouds Few 2000 ft
Mostly Cloudy 30000 ft
Heat Index 89 °F
Dew Point 81 °F
Humidity 100%
Rainfall 0.00 in
Snow Depth Not available.
UV 0 out of 12
Pollen Not available.
Air Quality Not available.
Flu Activity Not available.
METAR VTSB 241300Z 03005KT 9000 FEW020 BKN300 27/27 Q1010 A2982

More Conditions Fewer Conditions

10-Day Weather Forecast

Almanac

Astronomy

Nov. 24, 2014 Rise Set
Actual Time
Civil Twilight
Nautical Twilight
Astronomical Twilight
Moon
Length of Visible Light
Length of Day
Tomorrow will be .
, % of the Moon is Illuminated

Today's Extremes

Country Highs Country Lows

Community

WunderPhotos

Upload Photos

1,773,332 photos uploaded!

WunderBlogs® & News

Nearby

Air Quality

  Air Quality AQ Index Pollutant
Not available.

Snow Depth

Station Depth Elevation

Earthquake Activity

City Distance Mag. Time & Date
Minimum magnitude displayed is 2.5.

Coastal Water Temperatures

Place Temperature

Nearby Weather Stations